sensor_id;sensor_type;location;lat;lon;timestamp;pressure;altitude;pressure_sealevel;temperature;humidity
10008;BME280;5043;41.766;26.204;2023-04-03T00:01:02;100290.97;;;9.80;98.21
10008;BME280;5043;41.766;26.204;2023-04-03T00:03:28;100295.50;;;9.67;98.74
10008;BME280;5043;41.766;26.204;2023-04-03T00:05:53;100219.75;;;9.12;99.16
10008;BME280;5043;41.766;26.204;2023-04-03T00:08:20;100301.31;;;9.59;99.38
10008;BME280;5043;41.766;26.204;2023-04-03T00:10:45;100307.78;;;9.55;99.92
10008;BME280;5043;41.766;26.204;2023-04-03T00:13:12;100319.66;;;9.61;100.00
10008;BME280;5043;41.766;26.204;2023-04-03T00:15:38;100305.47;;;9.75;99.67
10008;BME280;5043;41.766;26.204;2023-04-03T00:18:03;100229.31;;;9.37;99.81
10008;BME280;5043;41.766;26.204;2023-04-03T00:20:29;100297.72;;;9.84;99.12
10008;BME280;5043;41.766;26.204;2023-04-03T00:22:55;100277.06;;;9.67;98.01
10008;BME280;5043;41.766;26.204;2023-04-03T00:25:21;100275.91;;;9.82;97.50
10008;BME280;5043;41.766;26.204;2023-04-03T00:27:46;100208.72;;;9.31;96.81
10008;BME280;5043;41.766;26.204;2023-04-03T00:30:17;100287.19;;;9.95;96.31
10008;BME280;5043;41.766;26.204;2023-04-03T00:32:43;100315.47;;;9.93;95.60
10008;BME280;5043;41.766;26.204;2023-04-03T00:35:08;100303.50;;;10.00;94.16
10008;BME280;5043;41.766;26.204;2023-04-03T00:37:34;100295.44;;;9.91;93.51
10008;BME280;5043;41.766;26.204;2023-04-03T00:40:01;100317.31;;;9.80;94.00
10008;BME280;5043;41.766;26.204;2023-04-03T00:42:27;100305.72;;;9.83;93.71
10008;BME280;5043;41.766;26.204;2023-04-03T00:47:18;100277.34;;;9.75;93.64
10008;BME280;5043;41.766;26.204;2023-04-03T00:49:44;100280.16;;;9.61;94.20
10008;BME280;5043;41.766;26.204;2023-04-03T00:52:14;100283.41;;;9.64;94.28
10008;BME280;5043;41.766;26.204;2023-04-03T00:54:42;100272.63;;;9.56;93.97
10008;BME280;5043;41.766;26.204;2023-04-03T00:57:09;100266.88;;;9.62;94.08
10008;BME280;5043;41.766;26.204;2023-04-03T00:59:40;100299.91;;;9.66;95.02
10008;BME280;5043;41.766;26.204;2023-04-03T01:02:11;100273.06;;;9.61;95.03
10008;BME280;5043;41.766;26.204;2023-04-03T01:04:41;100279.53;;;9.57;95.38
10008;BME280;5043;41.766;26.204;2023-04-03T01:07:11;100271.03;;;9.54;95.98
10008;BME280;5043;41.766;26.204;2023-04-03T01:09:38;100247.38;;;9.30;96.23
10008;BME280;5043;41.766;26.204;2023-04-03T01:12:21;100265.97;;;9.40;96.37
10008;BME280;5043;41.766;26.204;2023-04-03T01:14:50;100293.72;;;9.44;96.63
10008;BME280;5043;41.766;26.204;2023-04-03T01:25:49;100228.41;;;9.14;95.06
10008;BME280;5043;41.766;26.204;2023-04-03T01:28:32;100245.56;;;9.31;94.38
10008;BME280;5043;41.766;26.204;2023-04-03T01:31:41;100313.25;;;9.76;93.88
10008;BME280;5043;41.766;26.204;2023-04-03T01:34:07;100295.19;;;9.48;94.93
10008;BME280;5043;41.766;26.204;2023-04-03T01:36:32;100288.13;;;9.48;95.34
10008;BME280;5043;41.766;26.204;2023-04-03T01:38:59;100281.91;;;9.49;95.54
10008;BME280;5043;41.766;26.204;2023-04-03T01:41:25;100225.16;;;9.11;95.17
10008;BME280;5043;41.766;26.204;2023-04-03T01:43:51;100229.06;;;9.05;94.81
10008;BME280;5043;41.766;26.204;2023-04-03T01:46:18;100306.94;;;9.55;94.64
10008;BME280;5043;41.766;26.204;2023-04-03T01:48:44;100244.50;;;9.33;91.74
10008;BME280;5043;41.766;26.204;2023-04-03T01:51:09;100311.47;;;9.53;91.41
10008;BME280;5043;41.766;26.204;2023-04-03T01:53:35;100314.28;;;9.39;91.91
10008;BME280;5043;41.766;26.204;2023-04-03T01:56:01;100242.09;;;9.30;90.54
10008;BME280;5043;41.766;26.204;2023-04-03T01:58:26;100240.22;;;9.09;91.40
10008;BME280;5043;41.766;26.204;2023-04-03T02:00:52;100318.16;;;9.22;92.75
10008;BME280;5043;41.766;26.204;2023-04-03T02:03:17;100327.63;;;8.88;94.60
10008;BME280;5043;41.766;26.204;2023-04-03T02:05:43;100342.28;;;8.67;95.89
10008;BME280;5043;41.766;26.204;2023-04-03T02:08:08;100262.63;;;8.29;96.51
10008;BME280;5043;41.766;26.204;2023-04-03T02:10:34;100259.16;;;8.28;96.86
10008;BME280;5043;41.766;26.204;2023-04-03T02:12:59;100272.59;;;8.37;97.17
10008;BME280;5043;41.766;26.204;2023-04-03T02:15:25;100331.41;;;8.84;96.84
10008;BME280;5043;41.766;26.204;2023-04-03T02:17:51;100317.56;;;8.57;96.82
10008;BME280;5043;41.766;26.204;2023-04-03T02:20:17;100357.81;;;8.95;96.56
10008;BME280;5043;41.766;26.204;2023-04-03T02:22:42;100334.69;;;8.88;96.60
10008;BME280;5043;41.766;26.204;2023-04-03T02:25:08;100353.50;;;8.82;97.19
10008;BME280;5043;41.766;26.204;2023-04-03T02:27:34;100330.16;;;8.77;97.63
10008;BME280;5043;41.766;26.204;2023-04-03T02:30:00;100358.66;;;8.83;97.91
10008;BME280;5043;41.766;26.204;2023-04-03T02:32:26;100328.25;;;8.79;97.97
10008;BME280;5043;41.766;26.204;2023-04-03T02:34:51;100250.34;;;8.29;97.40
10008;BME280;5043;41.766;26.204;2023-04-03T02:37:17;100333.50;;;8.79;97.79
10008;BME280;5043;41.766;26.204;2023-04-03T02:39:42;100323.81;;;8.92;96.99
10008;BME280;5043;41.766;26.204;2023-04-03T02:42:07;100316.69;;;8.82;97.61
10008;BME280;5043;41.766;26.204;2023-04-03T02:44:33;100321.53;;;8.88;97.80
10008;BME280;5043;41.766;26.204;2023-04-03T02:46:58;100244.84;;;8.45;97.32
10008;BME280;5043;41.766;26.204;2023-04-03T02:49:24;100336.31;;;9.02;97.08
10008;BME280;5043;41.766;26.204;2023-04-03T02:51:49;100327.63;;;8.88;96.81
10008;BME280;5043;41.766;26.204;2023-04-03T02:54:16;100327.19;;;8.94;97.19
10008;BME280;5043;41.766;26.204;2023-04-03T02:56:41;100274.34;;;8.61;97.21
10008;BME280;5043;41.766;26.204;2023-04-03T02:59:07;100253.03;;;8.41;97.52
10008;BME280;5043;41.766;26.204;2023-04-03T03:01:32;100335.00;;;8.83;97.75
10008;BME280;5043;41.766;26.204;2023-04-03T03:03:59;100281.50;;;8.59;97.23
10008;BME280;5043;41.766;26.204;2023-04-03T03:06:25;100339.81;;;8.77;96.70
10008;BME280;5043;41.766;26.204;2023-04-03T03:08:50;100348.84;;;8.98;96.61
10008;BME280;5043;41.766;26.204;2023-04-03T03:11:16;100326.59;;;8.78;96.94
10008;BME280;5043;41.766;26.204;2023-04-03T03:13:41;100313.38;;;8.67;96.65
10008;BME280;5043;41.766;26.204;2023-04-03T03:16:07;100343.91;;;8.93;96.26
10008;BME280;5043;41.766;26.204;2023-04-03T03:18:33;100337.66;;;8.71;97.14
10008;BME280;5043;41.766;26.204;2023-04-03T03:21:00;100332.50;;;8.69;97.51
10008;BME280;5043;41.766;26.204;2023-04-03T03:23:28;100334.59;;;8.52;99.30
10008;BME280;5043;41.766;26.204;2023-04-03T03:25:58;100361.72;;;8.40;100.00
10008;BME280;5043;41.766;26.204;2023-04-03T03:28:24;100300.31;;;8.03;100.00
10008;BME280;5043;41.766;26.204;2023-04-03T03:30:50;100324.88;;;8.02;100.00
10008;BME280;5043;41.766;26.204;2023-04-03T03:33:16;100334.00;;;7.84;100.00
10008;BME280;5043;41.766;26.204;2023-04-03T03:35:42;100326.63;;;7.76;100.00
10008;BME280;5043;41.766;26.204;2023-04-03T03:38:08;100328.59;;;7.60;100.00
10008;BME280;5043;41.766;26.204;2023-04-03T03:40:33;100239.53;;;7.05;100.00
10008;BME280;5043;41.766;26.204;2023-04-03T03:42:59;100349.59;;;7.60;100.00
10008;BME280;5043;41.766;26.204;2023-04-03T03:45:25;100256.31;;;7.03;100.00
10008;BME280;5043;41.766;26.204;2023-04-03T03:47:50;100323.41;;;7.46;100.00
10008;BME280;5043;41.766;26.204;2023-04-03T03:50:16;100288.06;;;7.25;100.00
10008;BME280;5043;41.766;26.204;2023-04-03T03:52:41;100257.63;;;6.96;100.00
10008;BME280;5043;41.766;26.204;2023-04-03T03:55:07;100282.34;;;7.06;100.00
10008;BME280;5043;41.766;26.204;2023-04-03T03:57:33;100305.13;;;7.18;100.00
10008;BME280;5043;41.766;26.204;2023-04-03T03:59:58;100312.56;;;7.11;100.00
10008;BME280;5043;41.766;26.204;2023-04-03T04:02:24;100252.81;;;6.75;100.00
10008;BME280;5043;41.766;26.204;2023-04-03T04:04:49;100310.44;;;7.30;100.00
10008;BME280;5043;41.766;26.204;2023-04-03T04:07:14;100247.72;;;7.13;100.00
10008;BME280;5043;41.766;26.204;2023-04-03T04:09:40;100309.41;;;7.59;100.00
10008;BME280;5043;41.766;26.204;2023-04-03T04:12:05;100320.03;;;7.71;100.00
10008;BME280;5043;41.766;26.204;2023-04-03T04:14:31;100264.72;;;7.47;100.00
10008;BME280;5043;41.766;26.204;2023-04-03T04:16:56;100340.00;;;7.86;100.00
10008;BME280;5043;41.766;26.204;2023-04-03T04:19:22;100322.56;;;7.97;100.00
10008;BME280;5043;41.766;26.204;2023-04-03T04:21:47;100311.94;;;7.86;100.00
10008;BME280;5043;41.766;26.204;2023-04-03T04:24:13;100298.28;;;7.69;100.00
10008;BME280;5043;41.766;26.204;2023-04-03T04:26:38;100354.31;;;7.94;100.00
10008;BME280;5043;41.766;26.204;2023-04-03T04:29:04;100350.59;;;7.84;100.00
10008;BME280;5043;41.766;26.204;2023-04-03T04:31:29;100340.81;;;7.74;100.00
10008;BME280;5043;41.766;26.204;2023-04-03T04:33:55;100362.81;;;7.85;100.00
10008;BME280;5043;41.766;26.204;2023-04-03T04:36:20;100398.00;;;7.95;100.00
10008;BME280;5043;41.766;26.204;2023-04-03T04:38:46;100376.38;;;7.92;100.00
10008;BME280;5043;41.766;26.204;2023-04-03T04:41:11;100407.09;;;7.77;100.00
10008;BME280;5043;41.766;26.204;2023-04-03T04:43:37;100401.00;;;7.77;100.00
10008;BME280;5043;41.766;26.204;2023-04-03T04:46:09;100417.53;;;7.91;100.00
10008;BME280;5043;41.766;26.204;2023-04-03T04:48:37;100424.84;;;7.74;100.00
10008;BME280;5043;41.766;26.204;2023-04-03T04:51:03;100399.81;;;7.68;100.00
10008;BME280;5043;41.766;26.204;2023-04-03T04:53:28;100437.81;;;8.02;100.00
10008;BME280;5043;41.766;26.204;2023-04-03T04:55:54;100399.19;;;8.04;100.00
10008;BME280;5043;41.766;26.204;2023-04-03T04:58:20;100414.78;;;8.19;100.00
10008;BME280;5043;41.766;26.204;2023-04-03T05:00:45;100404.44;;;8.43;100.00
10008;BME280;5043;41.766;26.204;2023-04-03T05:03:11;100395.59;;;8.57;100.00
10008;BME280;5043;41.766;26.204;2023-04-03T05:05:37;100411.38;;;8.69;100.00
10008;BME280;5043;41.766;26.204;2023-04-03T05:08:03;100359.75;;;8.43;100.00
10008;BME280;5043;41.766;26.204;2023-04-03T05:10:29;100423.13;;;8.89;100.00
10008;BME280;5043;41.766;26.204;2023-04-03T05:12:54;100414.28;;;9.15;100.00
10008;BME280;5043;41.766;26.204;2023-04-03T05:15:19;100395.31;;;9.23;100.00
10008;BME280;5043;41.766;26.204;2023-04-03T05:17:45;100413.72;;;9.35;100.00
10008;BME280;5043;41.766;26.204;2023-04-03T05:20:11;100405.56;;;9.38;100.00
10008;BME280;5043;41.766;26.204;2023-04-03T05:22:37;100416.84;;;9.40;100.00
10008;BME280;5043;41.766;26.204;2023-04-03T05:25:03;100425.47;;;9.66;100.00
10008;BME280;5043;41.766;26.204;2023-04-03T05:27:29;100431.09;;;9.85;99.59
10008;BME280;5043;41.766;26.204;2023-04-03T05:29:55;100453.09;;;10.20;97.56
10008;BME280;5043;41.766;26.204;2023-04-03T05:32:21;100361.44;;;9.89;97.21
10008;BME280;5043;41.766;26.204;2023-04-03T05:34:47;100401.25;;;10.08;97.58
10008;BME280;5043;41.766;26.204;2023-04-03T05:37:12;100357.97;;;9.65;97.84
10008;BME280;5043;41.766;26.204;2023-04-03T05:39:38;100434.75;;;9.95;98.50
10008;BME280;5043;41.766;26.204;2023-04-03T05:42:06;100407.91;;;9.90;98.65
10008;BME280;5043;41.766;26.204;2023-04-03T05:44:32;100327.56;;;9.61;98.67
10008;BME280;5043;41.766;26.204;2023-04-03T05:46:57;100399.31;;;9.99;98.78
10008;BME280;5043;41.766;26.204;2023-04-03T05:49:22;100340.31;;;9.78;98.34
10008;BME280;5043;41.766;26.204;2023-04-03T05:51:48;100446.66;;;10.24;98.09
10008;BME280;5043;41.766;26.204;2023-04-03T05:54:34;100416.50;;;10.51;97.17
10008;BME280;5043;41.766;26.204;2023-04-03T05:56:59;100363.47;;;10.20;97.07
10008;BME280;5043;41.766;26.204;2023-04-03T05:59:25;100427.84;;;10.86;96.05
10008;BME280;5043;41.766;26.204;2023-04-03T06:01:50;100445.13;;;11.01;94.83
10008;BME280;5043;41.766;26.204;2023-04-03T06:04:15;100408.28;;;10.66;95.63
10008;BME280;5043;41.766;26.204;2023-04-03T06:06:55;100337.03;;;10.33;95.17
10008;BME280;5043;41.766;26.204;2023-04-03T06:09:24;100449.41;;;10.69;96.03
10008;BME280;5043;41.766;26.204;2023-04-03T06:11:50;100449.91;;;10.96;95.13
10008;BME280;5043;41.766;26.204;2023-04-03T06:14:17;100470.53;;;10.91;94.47
10008;BME280;5043;41.766;26.204;2023-04-03T06:16:42;100470.03;;;10.75;96.39
10008;BME280;5043;41.766;26.204;2023-04-03T06:19:09;100423.19;;;10.44;97.40
10008;BME280;5043;41.766;26.204;2023-04-03T06:21:35;100465.19;;;10.58;98.94
10008;BME280;5043;41.766;26.204;2023-04-03T06:24:02;100455.66;;;10.79;98.73
10008;BME280;5043;41.766;26.204;2023-04-03T06:26:28;100462.97;;;10.86;97.98
10008;BME280;5043;41.766;26.204;2023-04-03T06:28:53;100431.09;;;10.78;96.93
10008;BME280;5043;41.766;26.204;2023-04-03T06:31:19;100460.13;;;11.00;96.33
10008;BME280;5043;41.766;26.204;2023-04-03T06:33:45;100464.81;;;10.97;96.65
10008;BME280;5043;41.766;26.204;2023-04-03T06:36:11;100402.03;;;10.56;97.57
10008;BME280;5043;41.766;26.204;2023-04-03T06:38:37;100451.84;;;10.94;97.25
10008;BME280;5043;41.766;26.204;2023-04-03T06:41:03;100458.63;;;10.74;97.52
10008;BME280;5043;41.766;26.204;2023-04-03T06:43:28;100446.56;;;10.83;98.50
10008;BME280;5043;41.766;26.204;2023-04-03T06:45:56;100442.00;;;10.96;97.57
10008;BME280;5043;41.766;26.204;2023-04-03T06:48:22;100437.78;;;11.04;96.65
10008;BME280;5043;41.766;26.204;2023-04-03T06:50:48;100453.66;;;11.16;96.85
10008;BME280;5043;41.766;26.204;2023-04-03T06:53:13;100455.41;;;10.82;96.86
10008;BME280;5043;41.766;26.204;2023-04-03T06:55:39;100457.84;;;10.96;97.63
10008;BME280;5043;41.766;26.204;2023-04-03T06:58:04;100462.41;;;11.05;98.71
10008;BME280;5043;41.766;26.204;2023-04-03T07:00:30;100438.81;;;10.58;98.73
10008;BME280;5043;41.766;26.204;2023-04-03T07:02:56;100482.88;;;10.79;100.00
10008;BME280;5043;41.766;26.204;2023-04-03T07:05:23;100464.56;;;10.89;99.38
10008;BME280;5043;41.766;26.204;2023-04-03T07:07:48;100489.00;;;10.91;99.71
10008;BME280;5043;41.766;26.204;2023-04-03T07:10:15;100461.31;;;10.85;99.71
10008;BME280;5043;41.766;26.204;2023-04-03T07:12:41;100453.03;;;10.90;99.95
10008;BME280;5043;41.766;26.204;2023-04-03T07:15:07;100465.97;;;10.93;100.00
10008;BME280;5043;41.766;26.204;2023-04-03T07:17:33;100451.13;;;11.14;99.30
10008;BME280;5043;41.766;26.204;2023-04-03T07:19:58;100466.72;;;11.28;99.26
10008;BME280;5043;41.766;26.204;2023-04-03T07:22:24;100465.28;;;11.35;99.44
10008;BME280;5043;41.766;26.204;2023-04-03T07:24:50;100464.78;;;11.30;99.29
10008;BME280;5043;41.766;26.204;2023-04-03T07:27:15;100473.44;;;11.54;99.05
10008;BME280;5043;41.766;26.204;2023-04-03T07:29:42;100492.41;;;11.70;99.90
10008;BME280;5043;41.766;26.204;2023-04-03T07:32:09;100499.81;;;11.65;100.00
10008;BME280;5043;41.766;26.204;2023-04-03T07:34:35;100499.38;;;11.49;100.00
10008;BME280;5043;41.766;26.204;2023-04-03T07:37:01;100489.25;;;11.65;100.00
10008;BME280;5043;41.766;26.204;2023-04-03T07:39:28;100493.59;;;11.78;100.00
10008;BME280;5043;41.766;26.204;2023-04-03T07:41:54;100485.91;;;11.86;100.00
10008;BME280;5043;41.766;26.204;2023-04-03T07:44:21;100479.31;;;11.80;100.00
10008;BME280;5043;41.766;26.204;2023-04-03T07:46:46;100488.75;;;11.94;100.00
10008;BME280;5043;41.766;26.204;2023-04-03T07:49:13;100481.44;;;11.97;100.00
10008;BME280;5043;41.766;26.204;2023-04-03T07:51:39;100469.69;;;11.90;100.00
10008;BME280;5043;41.766;26.204;2023-04-03T07:54:05;100475.91;;;12.32;100.00
10008;BME280;5043;41.766;26.204;2023-04-03T07:56:31;100427.94;;;12.05;100.00
10008;BME280;5043;41.766;26.204;2023-04-03T07:58:57;100412.31;;;12.02;100.00
10008;BME280;5043;41.766;26.204;2023-04-03T08:01:22;100476.69;;;12.43;100.00
10008;BME280;5043;41.766;26.204;2023-04-03T08:03:48;100404.59;;;11.78;100.00
10008;BME280;5043;41.766;26.204;2023-04-03T08:06:13;100452.84;;;11.91;100.00
10008;BME280;5043;41.766;26.204;2023-04-03T08:08:40;100475.66;;;12.35;100.00
10008;BME280;5043;41.766;26.204;2023-04-03T08:11:06;100416.69;;;12.23;100.00
10008;BME280;5043;41.766;26.204;2023-04-03T08:13:33;100394.53;;;12.04;100.00
10008;BME280;5043;41.766;26.204;2023-04-03T08:16:10;100472.56;;;12.51;100.00
10008;BME280;5043;41.766;26.204;2023-04-03T08:18:37;100454.31;;;12.68;100.00
10008;BME280;5043;41.766;26.204;2023-04-03T08:21:05;100471.00;;;12.69;100.00
10008;BME280;5043;41.766;26.204;2023-04-03T08:23:31;100410.06;;;12.18;100.00
10008;BME280;5043;41.766;26.204;2023-04-03T08:25:56;100458.69;;;12.58;100.00
10008;BME280;5043;41.766;26.204;2023-04-03T08:28:22;100460.25;;;12.61;100.00
10008;BME280;5043;41.766;26.204;2023-04-03T08:30:47;100469.72;;;12.63;100.00
10008;BME280;5043;41.766;26.204;2023-04-03T08:33:13;100472.50;;;12.82;100.00
10008;BME280;5043;41.766;26.204;2023-04-03T08:35:40;100459.00;;;12.85;100.00
10008;BME280;5043;41.766;26.204;2023-04-03T08:38:06;100403.56;;;12.63;100.00
10008;BME280;5043;41.766;26.204;2023-04-03T08:40:32;100467.44;;;13.00;100.00
10008;BME280;5043;41.766;26.204;2023-04-03T08:43:28;100475.72;;;13.06;100.00
10008;BME280;5043;41.766;26.204;2023-04-03T08:45:57;100439.78;;;13.14;100.00
10008;BME280;5043;41.766;26.204;2023-04-03T08:48:36;100450.28;;;13.15;100.00
10008;BME280;5043;41.766;26.204;2023-04-03T08:51:10;100431.94;;;13.33;100.00
10008;BME280;5043;41.766;26.204;2023-04-03T08:54:01;100426.19;;;13.28;100.00
10008;BME280;5043;41.766;26.204;2023-04-03T08:56:29;100419.13;;;13.38;100.00
10008;BME280;5043;41.766;26.204;2023-04-03T08:58:58;100406.34;;;13.62;100.00
10008;BME280;5043;41.766;26.204;2023-04-03T09:01:37;100413.75;;;13.77;100.00
10008;BME280;5043;41.766;26.204;2023-04-03T09:04:10;100429.28;;;13.92;100.00
10008;BME280;5043;41.766;26.204;2023-04-03T09:06:38;100386.38;;;13.67;100.00
10008;BME280;5043;41.766;26.204;2023-04-03T09:14:46;100417.53;;;13.75;100.00
10008;BME280;5043;41.766;26.204;2023-04-03T09:17:16;100443.31;;;13.63;100.00
10008;BME280;5043;41.766;26.204;2023-04-03T09:22:25;100404.34;;;13.45;100.00
10008;BME280;5043;41.766;26.204;2023-04-03T09:25:33;100422.41;;;13.70;100.00
10008;BME280;5043;41.766;26.204;2023-04-03T09:28:01;100404.22;;;13.56;100.00
10008;BME280;5043;41.766;26.204;2023-04-03T09:30:28;100353.84;;;13.37;100.00
10008;BME280;5043;41.766;26.204;2023-04-03T09:32:56;100421.25;;;13.53;100.00
10008;BME280;5043;41.766;26.204;2023-04-03T09:35:25;100424.53;;;13.27;100.00
10008;BME280;5043;41.766;26.204;2023-04-03T09:40:36;100404.34;;;13.05;100.00
10008;BME280;5043;41.766;26.204;2023-04-03T09:43:24;100359.69;;;12.91;100.00
10008;BME280;5043;41.766;26.204;2023-04-03T09:45:53;100362.47;;;12.89;100.00
10008;BME280;5043;41.766;26.204;2023-04-03T09:48:23;100398.94;;;13.56;100.00
10008;BME280;5043;41.766;26.204;2023-04-03T09:50:54;100412.78;;;13.69;100.00
10008;BME280;5043;41.766;26.204;2023-04-03T09:53:42;100413.50;;;13.90;100.00
10008;BME280;5043;41.766;26.204;2023-04-03T10:01:58;100412.38;;;13.83;100.00
10008;BME280;5043;41.766;26.204;2023-04-03T10:04:25;100407.34;;;13.80;100.00
10008;BME280;5043;41.766;26.204;2023-04-03T10:06:54;100382.91;;;13.67;100.00
10008;BME280;5043;41.766;26.204;2023-04-03T10:12:09;100399.00;;;14.13;100.00
10008;BME280;5043;41.766;26.204;2023-04-03T10:14:40;100385.00;;;14.21;100.00
10008;BME280;5043;41.766;26.204;2023-04-03T10:17:22;100398.44;;;14.38;100.00
10008;BME280;5043;41.766;26.204;2023-04-03T10:19:57;100387.13;;;14.36;100.00
10008;BME280;5043;41.766;26.204;2023-04-03T10:25:18;100396.72;;;14.47;100.00
10008;BME280;5043;41.766;26.204;2023-04-03T10:28:02;100385.56;;;14.53;100.00
10008;BME280;5043;41.766;26.204;2023-04-03T10:38:52;100367.69;;;15.19;100.00
10008;BME280;5043;41.766;26.204;2023-04-03T10:46:47;100371.44;;;15.53;100.00
10008;BME280;5043;41.766;26.204;2023-04-03T10:52:37;100351.28;;;15.68;100.00
10008;BME280;5043;41.766;26.204;2023-04-03T10:57:07;100343.00;;;16.07;100.00
10008;BME280;5043;41.766;26.204;2023-04-03T10:59:57;100347.34;;;16.51;100.00
10008;BME280;5043;41.766;26.204;2023-04-03T11:02:33;100325.25;;;16.59;100.00
10008;BME280;5043;41.766;26.204;2023-04-03T11:07:55;100359.00;;;16.76;100.00
10008;BME280;5043;41.766;26.204;2023-04-03T11:10:40;100348.91;;;16.95;100.00
10008;BME280;5043;41.766;26.204;2023-04-03T11:13:11;100348.84;;;17.13;100.00
10008;BME280;5043;41.766;26.204;2023-04-03T11:15:39;100307.97;;;16.96;94.76
10008;BME280;5043;41.766;26.204;2023-04-03T11:18:11;100344.13;;;17.49;93.28
10008;BME280;5043;41.766;26.204;2023-04-03T11:20:42;100352.50;;;17.54;92.74
10008;BME280;5043;41.766;26.204;2023-04-03T11:23:23;100338.84;;;17.89;91.79
10008;BME280;5043;41.766;26.204;2023-04-03T11:25:53;100296.16;;;17.81;90.02
10008;BME280;5043;41.766;26.204;2023-04-03T11:28:19;100356.06;;;18.35;88.21
10008;BME280;5043;41.766;26.204;2023-04-03T11:30:54;100339.84;;;18.36;89.21
10008;BME280;5043;41.766;26.204;2023-04-03T11:38:54;100356.41;;;18.24;86.39
10008;BME280;5043;41.766;26.204;2023-04-03T11:41:31;100349.88;;;18.18;87.21
10008;BME280;5043;41.766;26.204;2023-04-03T11:43:58;100274.50;;;17.84;87.79
10008;BME280;5043;41.766;26.204;2023-04-03T11:46:51;100324.03;;;18.03;89.22
10008;BME280;5043;41.766;26.204;2023-04-03T11:49:52;100309.97;;;18.41;86.52
10008;BME280;5043;41.766;26.204;2023-04-03T12:05:49;100286.03;;;18.72;80.65
10008;BME280;5043;41.766;26.204;2023-04-03T12:13:43;100236.00;;;18.41;81.78
10008;BME280;5043;41.766;26.204;2023-04-03T12:16:32;100216.97;;;18.36;81.61
10008;BME280;5043;41.766;26.204;2023-04-03T12:19:38;100271.56;;;18.50;81.96
10008;BME280;5043;41.766;26.204;2023-04-03T12:22:14;100285.38;;;18.62;82.34
10008;BME280;5043;41.766;26.204;2023-04-03T12:24:45;100207.34;;;18.27;81.97
10008;BME280;5043;41.766;26.204;2023-04-03T12:27:25;100264.47;;;18.73;81.16
10008;BME280;5043;41.766;26.204;2023-04-03T12:35:31;100254.59;;;18.82;78.27
10008;BME280;5043;41.766;26.204;2023-04-03T12:44:39;100251.16;;;18.57;80.06
10008;BME280;5043;41.766;26.204;2023-04-03T12:47:00;100224.50;;;18.49;78.66
10008;BME280;5043;41.766;26.204;2023-04-03T12:49:35;100249.53;;;18.48;78.67
10008;BME280;5043;41.766;26.204;2023-04-03T12:54:46;100247.97;;;18.62;79.54
10008;BME280;5043;41.766;26.204;2023-04-03T12:59:41;100229.03;;;18.24;79.50
10008;BME280;5043;41.766;26.204;2023-04-03T13:02:35;100235.72;;;18.28;79.95
10008;BME280;5043;41.766;26.204;2023-04-03T13:05:09;100245.56;;;18.20;79.56
10008;BME280;5043;41.766;26.204;2023-04-03T13:07:39;100222.72;;;18.17;78.95
10008;BME280;5043;41.766;26.204;2023-04-03T13:12:57;100226.16;;;18.42;78.47
10008;BME280;5043;41.766;26.204;2023-04-03T13:15:26;100217.50;;;18.79;77.08
10008;BME280;5043;41.766;26.204;2023-04-03T13:17:53;100213.03;;;19.02;76.59
10008;BME280;5043;41.766;26.204;2023-04-03T13:23:04;100210.09;;;19.19;74.85
10008;BME280;5043;41.766;26.204;2023-04-03T13:25:34;100207.34;;;19.28;74.11
10008;BME280;5043;41.766;26.204;2023-04-03T13:28:02;100142.78;;;18.85;73.48
10008;BME280;5043;41.766;26.204;2023-04-03T13:30:34;100210.44;;;19.16;74.14
10008;BME280;5043;41.766;26.204;2023-04-03T13:33:03;100190.88;;;19.16;74.17
10008;BME280;5043;41.766;26.204;2023-04-03T13:35:40;100175.78;;;19.00;74.54
10008;BME280;5043;41.766;26.204;2023-04-03T13:40:59;100170.28;;;19.25;73.71
10008;BME280;5043;41.766;26.204;2023-04-03T13:43:35;100179.19;;;19.17;74.16
10008;BME280;5043;41.766;26.204;2023-04-03T13:51:14;100172.66;;;19.42;73.63
10008;BME280;5043;41.766;26.204;2023-04-03T13:54:01;100156.44;;;19.58;72.80
10008;BME280;5043;41.766;26.204;2023-04-03T13:56:39;100164.41;;;19.66;72.25
10008;BME280;5043;41.766;26.204;2023-04-03T14:04:31;100146.66;;;19.51;72.12
10008;BME280;5043;41.766;26.204;2023-04-03T14:06:58;100128.41;;;19.32;73.17
10008;BME280;5043;41.766;26.204;2023-04-03T14:09:26;100110.34;;;19.11;74.49
10008;BME280;5043;41.766;26.204;2023-04-03T14:11:55;100113.41;;;19.22;73.68
10008;BME280;5043;41.766;26.204;2023-04-03T14:14:26;100116.28;;;19.21;73.88
10008;BME280;5043;41.766;26.204;2023-04-03T14:16:55;100129.84;;;19.19;74.30
10008;BME280;5043;41.766;26.204;2023-04-03T14:19:26;100102.22;;;18.82;75.37
10008;BME280;5043;41.766;26.204;2023-04-03T14:21:53;100134.50;;;19.03;75.43
10008;BME280;5043;41.766;26.204;2023-04-03T14:24:20;100075.72;;;18.72;75.43
10008;BME280;5043;41.766;26.204;2023-04-03T14:26:48;100105.84;;;18.89;76.69
10008;BME280;5043;41.766;26.204;2023-04-03T14:29:14;100072.56;;;18.69;78.33
10008;BME280;5043;41.766;26.204;2023-04-03T14:31:42;100105.31;;;18.93;78.79
10008;BME280;5043;41.766;26.204;2023-04-03T14:34:13;100051.25;;;18.61;79.99
10008;BME280;5043;41.766;26.204;2023-04-03T14:36:43;100111.88;;;18.83;80.80
10008;BME280;5043;41.766;26.204;2023-04-03T14:39:18;100095.38;;;18.57;81.11
10008;BME280;5043;41.766;26.204;2023-04-03T14:41:45;100128.97;;;18.51;81.43
10008;BME280;5043;41.766;26.204;2023-04-03T14:44:11;100091.06;;;18.17;81.48
10008;BME280;5043;41.766;26.204;2023-04-03T14:46:43;100116.84;;;18.32;81.92
10008;BME280;5043;41.766;26.204;2023-04-03T14:49:25;100109.16;;;18.37;82.07
10008;BME280;5043;41.766;26.204;2023-04-03T14:51:51;100102.88;;;18.22;83.21
10008;BME280;5043;41.766;26.204;2023-04-03T14:54:22;100108.53;;;18.27;82.94